sensor_id;sensor_type;location;lat;lon;timestamp;P1;durP1;ratioP1;P2;durP2;ratioP2
51048;SDS011;37084;55.228;36.450;2023-09-08T00:00:06;1.70;;;1.00;;
51048;SDS011;37084;55.228;36.450;2023-09-08T00:03:08;3.13;;;1.10;;
51048;SDS011;37084;55.228;36.450;2023-09-08T00:06:09;2.03;;;1.23;;
51048;SDS011;37084;55.228;36.450;2023-09-08T00:09:10;3.92;;;1.10;;
51048;SDS011;37084;55.228;36.450;2023-09-08T00:12:12;1.85;;;0.80;;
51048;SDS011;37084;55.228;36.450;2023-09-08T00:15:13;1.95;;;1.45;;
51048;SDS011;37084;55.228;36.450;2023-09-08T00:18:14;2.08;;;0.98;;
51048;SDS011;37084;55.228;36.450;2023-09-08T00:21:15;2.65;;;0.85;;
51048;SDS011;37084;55.228;36.450;2023-09-08T00:24:16;2.47;;;0.98;;
51048;SDS011;37084;55.228;36.450;2023-09-08T00:27:19;3.15;;;1.13;;
51048;SDS011;37084;55.228;36.450;2023-09-08T00:30:20;1.95;;;1.10;;
51048;SDS011;37084;55.228;36.450;2023-09-08T00:33:21;2.70;;;1.05;;
51048;SDS011;37084;55.228;36.450;2023-09-08T00:36:24;2.08;;;1.23;;
51048;SDS011;37084;55.228;36.450;2023-09-08T00:39:25;1.17;;;1.00;;
51048;SDS011;37084;55.228;36.450;2023-09-08T00:42:26;5.30;;;1.02;;
51048;SDS011;37084;55.228;36.450;2023-09-08T00:45:28;2.88;;;0.90;;
51048;SDS011;37084;55.228;36.450;2023-09-08T00:48:30;1.95;;;1.23;;
51048;SDS011;37084;55.228;36.450;2023-09-08T00:51:31;4.30;;;1.67;;
51048;SDS011;37084;55.228;36.450;2023-09-08T00:54:34;3.42;;;1.08;;
51048;SDS011;37084;55.228;36.450;2023-09-08T00:57:35;2.72;;;0.90;;
51048;SDS011;37084;55.228;36.450;2023-09-08T01:00:36;3.45;;;0.90;;
51048;SDS011;37084;55.228;36.450;2023-09-08T01:03:37;1.67;;;1.23;;
51048;SDS011;37084;55.228;36.450;2023-09-08T01:06:38;1.85;;;1.10;;
51048;SDS011;37084;55.228;36.450;2023-09-08T01:09:40;1.83;;;0.95;;
51048;SDS011;37084;55.228;36.450;2023-09-08T01:12:41;3.03;;;1.38;;
51048;SDS011;37084;55.228;36.450;2023-09-08T01:15:42;1.25;;;1.00;;
51048;SDS011;37084;55.228;36.450;2023-09-08T01:18:43;1.90;;;1.25;;
51048;SDS011;37084;55.228;36.450;2023-09-08T01:25:23;1.75;;;1.02;;
51048;SDS011;37084;55.228;36.450;2023-09-08T01:28:25;2.70;;;0.98;;
51048;SDS011;37084;55.228;36.450;2023-09-08T01:31:27;1.52;;;0.93;;
51048;SDS011;37084;55.228;36.450;2023-09-08T01:34:28;1.33;;;1.08;;
51048;SDS011;37084;55.228;36.450;2023-09-08T01:37:31;2.05;;;0.90;;
51048;SDS011;37084;55.228;36.450;2023-09-08T01:40:32;3.03;;;1.05;;
51048;SDS011;37084;55.228;36.450;2023-09-08T01:43:33;2.22;;;1.08;;
51048;SDS011;37084;55.228;36.450;2023-09-08T01:46:35;2.05;;;0.93;;
51048;SDS011;37084;55.228;36.450;2023-09-08T01:49:36;1.70;;;0.98;;
51048;SDS011;37084;55.228;36.450;2023-09-08T01:52:38;2.45;;;0.80;;
51048;SDS011;37084;55.228;36.450;2023-09-08T01:55:39;1.92;;;0.85;;
51048;SDS011;37084;55.228;36.450;2023-09-08T01:58:40;2.00;;;0.93;;
51048;SDS011;37084;55.228;36.450;2023-09-08T02:01:42;2.42;;;1.55;;
51048;SDS011;37084;55.228;36.450;2023-09-08T02:04:43;2.05;;;1.05;;
51048;SDS011;37084;55.228;36.450;2023-09-08T02:07:45;3.63;;;1.13;;
51048;SDS011;37084;55.228;36.450;2023-09-08T02:10:46;1.60;;;0.82;;
51048;SDS011;37084;55.228;36.450;2023-09-08T02:13:47;1.67;;;1.05;;
51048;SDS011;37084;55.228;36.450;2023-09-08T02:16:49;3.47;;;1.20;;
51048;SDS011;37084;55.228;36.450;2023-09-08T02:19:51;2.10;;;1.02;;
51048;SDS011;37084;55.228;36.450;2023-09-08T02:22:53;1.25;;;0.82;;
51048;SDS011;37084;55.228;36.450;2023-09-08T02:25:55;1.95;;;1.17;;
51048;SDS011;37084;55.228;36.450;2023-09-08T02:28:56;1.83;;;0.98;;
51048;SDS011;37084;55.228;36.450;2023-09-08T02:31:59;2.83;;;1.13;;
51048;SDS011;37084;55.228;36.450;2023-09-08T02:35:00;1.17;;;0.93;;
51048;SDS011;37084;55.228;36.450;2023-09-08T02:38:04;3.30;;;1.05;;
51048;SDS011;37084;55.228;36.450;2023-09-08T02:41:06;1.92;;;0.75;;
51048;SDS011;37084;55.228;36.450;2023-09-08T02:44:07;2.03;;;1.08;;
51048;SDS011;37084;55.228;36.450;2023-09-08T02:47:09;1.70;;;0.95;;
51048;SDS011;37084;55.228;36.450;2023-09-08T02:50:12;1.73;;;1.13;;
51048;SDS011;37084;55.228;36.450;2023-09-08T02:53:13;1.85;;;1.05;;
51048;SDS011;37084;55.228;36.450;2023-09-08T02:56:14;1.35;;;0.90;;
51048;SDS011;37084;55.228;36.450;2023-09-08T02:59:15;3.00;;;1.10;;
51048;SDS011;37084;55.228;36.450;2023-09-08T03:02:17;4.20;;;1.02;;
51048;SDS011;37084;55.228;36.450;2023-09-08T03:05:18;1.10;;;0.95;;
51048;SDS011;37084;55.228;36.450;2023-09-08T03:08:22;1.85;;;0.93;;
51048;SDS011;37084;55.228;36.450;2023-09-08T03:11:24;1.58;;;1.02;;
51048;SDS011;37084;55.228;36.450;2023-09-08T03:14:25;2.10;;;1.02;;
51048;SDS011;37084;55.228;36.450;2023-09-08T03:17:27;1.90;;;0.88;;
51048;SDS011;37084;55.228;36.450;2023-09-08T03:20:28;2.38;;;1.00;;
51048;SDS011;37084;55.228;36.450;2023-09-08T03:23:30;2.30;;;1.10;;
51048;SDS011;37084;55.228;36.450;2023-09-08T03:26:31;2.58;;;1.02;;
51048;SDS011;37084;55.228;36.450;2023-09-08T03:29:34;1.27;;;1.17;;
51048;SDS011;37084;55.228;36.450;2023-09-08T03:32:36;1.40;;;0.93;;
51048;SDS011;37084;55.228;36.450;2023-09-08T03:35:38;2.42;;;0.98;;
51048;SDS011;37084;55.228;36.450;2023-09-08T03:38:39;1.92;;;1.33;;
51048;SDS011;37084;55.228;36.450;2023-09-08T03:41:42;3.00;;;1.45;;
51048;SDS011;37084;55.228;36.450;2023-09-08T03:44:43;1.17;;;1.00;;
51048;SDS011;37084;55.228;36.450;2023-09-08T03:47:44;2.05;;;1.10;;
51048;SDS011;37084;55.228;36.450;2023-09-08T03:50:45;1.25;;;1.00;;
51048;SDS011;37084;55.228;36.450;2023-09-08T03:53:46;2.10;;;1.10;;
51048;SDS011;37084;55.228;36.450;2023-09-08T03:56:48;2.45;;;1.05;;
51048;SDS011;37084;55.228;36.450;2023-09-08T03:59:50;2.90;;;1.70;;
51048;SDS011;37084;55.228;36.450;2023-09-08T04:02:51;2.33;;;1.10;;
51048;SDS011;37084;55.228;36.450;2023-09-08T04:05:52;1.88;;;1.00;;
51048;SDS011;37084;55.228;36.450;2023-09-08T04:08:53;2.72;;;1.15;;
51048;SDS011;37084;55.228;36.450;2023-09-08T04:11:54;5.13;;;0.93;;
51048;SDS011;37084;55.228;36.450;2023-09-08T04:14:56;1.48;;;1.20;;
51048;SDS011;37084;55.228;36.450;2023-09-08T04:17:57;2.30;;;1.02;;
51048;SDS011;37084;55.228;36.450;2023-09-08T04:20:59;2.20;;;1.23;;
51048;SDS011;37084;55.228;36.450;2023-09-08T04:24:00;1.85;;;0.95;;
51048;SDS011;37084;55.228;36.450;2023-09-08T04:27:02;1.52;;;0.90;;
51048;SDS011;37084;55.228;36.450;2023-09-08T04:30:04;1.95;;;1.17;;
51048;SDS011;37084;55.228;36.450;2023-09-08T04:33:07;1.50;;;1.00;;
51048;SDS011;37084;55.228;36.450;2023-09-08T04:36:09;1.55;;;0.73;;
51048;SDS011;37084;55.228;36.450;2023-09-08T04:39:11;2.75;;;1.55;;
51048;SDS011;37084;55.228;36.450;2023-09-08T04:42:13;2.08;;;1.20;;
51048;SDS011;37084;55.228;36.450;2023-09-08T04:45:15;2.33;;;0.82;;
51048;SDS011;37084;55.228;36.450;2023-09-08T04:48:17;1.55;;;1.00;;
51048;SDS011;37084;55.228;36.450;2023-09-08T04:51:18;1.75;;;1.23;;
51048;SDS011;37084;55.228;36.450;2023-09-08T04:54:19;1.33;;;1.02;;
51048;SDS011;37084;55.228;36.450;2023-09-08T04:57:23;3.25;;;1.13;;
51048;SDS011;37084;55.228;36.450;2023-09-08T05:00:26;3.47;;;1.08;;
51048;SDS011;37084;55.228;36.450;2023-09-08T05:03:29;1.85;;;0.95;;
51048;SDS011;37084;55.228;36.450;2023-09-08T05:06:32;2.75;;;1.10;;
51048;SDS011;37084;55.228;36.450;2023-09-08T05:09:34;1.50;;;0.98;;
51048;SDS011;37084;55.228;36.450;2023-09-08T05:12:35;1.95;;;0.98;;
51048;SDS011;37084;55.228;36.450;2023-09-08T05:15:37;1.75;;;1.08;;
51048;SDS011;37084;55.228;36.450;2023-09-08T05:18:40;1.77;;;0.90;;
51048;SDS011;37084;55.228;36.450;2023-09-08T05:21:43;1.30;;;0.88;;
51048;SDS011;37084;55.228;36.450;2023-09-08T05:24:44;1.92;;;0.82;;
51048;SDS011;37084;55.228;36.450;2023-09-08T05:27:45;2.15;;;1.38;;
51048;SDS011;37084;55.228;36.450;2023-09-08T05:30:47;1.60;;;0.90;;
51048;SDS011;37084;55.228;36.450;2023-09-08T05:33:48;2.78;;;1.00;;
51048;SDS011;37084;55.228;36.450;2023-09-08T05:36:49;2.03;;;0.93;;
51048;SDS011;37084;55.228;36.450;2023-09-08T05:39:51;2.97;;;0.73;;
51048;SDS011;37084;55.228;36.450;2023-09-08T05:42:52;1.27;;;0.82;;
51048;SDS011;37084;55.228;36.450;2023-09-08T05:45:54;0.90;;;0.73;;
51048;SDS011;37084;55.228;36.450;2023-09-08T05:48:55;1.15;;;0.75;;
51048;SDS011;37084;55.228;36.450;2023-09-08T05:51:57;1.88;;;0.88;;
51048;SDS011;37084;55.228;36.450;2023-09-08T05:54:58;0.85;;;0.70;;
51048;SDS011;37084;55.228;36.450;2023-09-08T05:58:01;3.58;;;1.10;;
51048;SDS011;37084;55.228;36.450;2023-09-08T06:01:04;1.63;;;0.80;;
51048;SDS011;37084;55.228;36.450;2023-09-08T06:04:09;2.33;;;0.73;;
51048;SDS011;37084;55.228;36.450;2023-09-08T06:07:11;1.52;;;0.90;;
51048;SDS011;37084;55.228;36.450;2023-09-08T06:10:13;3.13;;;1.20;;
51048;SDS011;37084;55.228;36.450;2023-09-08T06:13:15;1.40;;;0.90;;
51048;SDS011;37084;55.228;36.450;2023-09-08T06:16:18;1.92;;;0.70;;
51048;SDS011;37084;55.228;36.450;2023-09-08T06:19:20;1.45;;;0.95;;
51048;SDS011;37084;55.228;36.450;2023-09-08T06:22:22;3.20;;;1.10;;
51048;SDS011;37084;55.228;36.450;2023-09-08T06:25:24;2.30;;;1.02;;
51048;SDS011;37084;55.228;36.450;2023-09-08T06:28:26;1.20;;;0.70;;
51048;SDS011;37084;55.228;36.450;2023-09-08T06:31:31;2.50;;;1.00;;
51048;SDS011;37084;55.228;36.450;2023-09-08T06:34:33;2.40;;;0.93;;
51048;SDS011;37084;55.228;36.450;2023-09-08T06:37:40;2.95;;;1.00;;
51048;SDS011;37084;55.228;36.450;2023-09-08T06:40:43;1.25;;;0.73;;
51048;SDS011;37084;55.228;36.450;2023-09-08T06:43:44;2.22;;;1.33;;
51048;SDS011;37084;55.228;36.450;2023-09-08T06:46:50;3.85;;;1.15;;
51048;SDS011;37084;55.228;36.450;2023-09-08T06:49:52;1.58;;;1.00;;
51048;SDS011;37084;55.228;36.450;2023-09-08T06:52:53;1.05;;;0.95;;
51048;SDS011;37084;55.228;36.450;2023-09-08T06:55:54;2.10;;;1.08;;
51048;SDS011;37084;55.228;36.450;2023-09-08T06:58:55;2.00;;;0.73;;
51048;SDS011;37084;55.228;36.450;2023-09-08T07:01:58;1.70;;;1.10;;
51048;SDS011;37084;55.228;36.450;2023-09-08T07:04:59;1.60;;;0.88;;
51048;SDS011;37084;55.228;36.450;2023-09-08T07:08:07;1.75;;;0.93;;
51048;SDS011;37084;55.228;36.450;2023-09-08T07:11:08;1.65;;;1.15;;
51048;SDS011;37084;55.228;36.450;2023-09-08T07:14:11;1.25;;;0.77;;
51048;SDS011;37084;55.228;36.450;2023-09-08T07:17:12;1.13;;;0.93;;
51048;SDS011;37084;55.228;36.450;2023-09-08T07:20:14;1.40;;;0.90;;
51048;SDS011;37084;55.228;36.450;2023-09-08T07:23:18;1.20;;;0.73;;
51048;SDS011;37084;55.228;36.450;2023-09-08T07:29:23;1.17;;;0.93;;
51048;SDS011;37084;55.228;36.450;2023-09-08T07:32:25;2.50;;;0.93;;
51048;SDS011;37084;55.228;36.450;2023-09-08T07:35:26;1.15;;;0.88;;
51048;SDS011;37084;55.228;36.450;2023-09-08T07:38:27;1.33;;;0.73;;
51048;SDS011;37084;55.228;36.450;2023-09-08T07:41:28;0.77;;;0.77;;
51048;SDS011;37084;55.228;36.450;2023-09-08T07:44:30;2.28;;;0.63;;
51048;SDS011;37084;55.228;36.450;2023-09-08T07:47:31;1.27;;;0.65;;
51048;SDS011;37084;55.228;36.450;2023-09-08T07:50:32;1.33;;;0.80;;
51048;SDS011;37084;55.228;36.450;2023-09-08T07:53:34;0.68;;;0.68;;
51048;SDS011;37084;55.228;36.450;2023-09-08T07:56:36;1.08;;;0.80;;
51048;SDS011;37084;55.228;36.450;2023-09-08T07:59:38;1.27;;;0.70;;
51048;SDS011;37084;55.228;36.450;2023-09-08T08:02:45;0.52;;;0.52;;
51048;SDS011;37084;55.228;36.450;2023-09-08T08:05:49;0.85;;;0.70;;
51048;SDS011;37084;55.228;36.450;2023-09-08T08:08:52;1.95;;;0.68;;
51048;SDS011;37084;55.228;36.450;2023-09-08T08:11:55;0.93;;;0.73;;
51048;SDS011;37084;55.228;36.450;2023-09-08T08:14:57;1.40;;;0.80;;
51048;SDS011;37084;55.228;36.450;2023-09-08T08:17:59;1.08;;;0.75;;
51048;SDS011;37084;55.228;36.450;2023-09-08T08:21:00;2.08;;;0.80;;
51048;SDS011;37084;55.228;36.450;2023-09-08T08:24:04;1.45;;;0.73;;
51048;SDS011;37084;55.228;36.450;2023-09-08T08:27:05;1.88;;;0.73;;
51048;SDS011;37084;55.228;36.450;2023-09-08T08:30:07;1.85;;;0.73;;
51048;SDS011;37084;55.228;36.450;2023-09-08T08:33:21;2.33;;;0.90;;
51048;SDS011;37084;55.228;36.450;2023-09-08T08:36:23;0.70;;;0.70;;
51048;SDS011;37084;55.228;36.450;2023-09-08T08:39:24;1.55;;;0.65;;
51048;SDS011;37084;55.228;36.450;2023-09-08T08:42:30;2.85;;;0.90;;
51048;SDS011;37084;55.228;36.450;2023-09-08T08:45:32;1.67;;;0.80;;
51048;SDS011;37084;55.228;36.450;2023-09-08T08:48:33;1.88;;;1.00;;
51048;SDS011;37084;55.228;36.450;2023-09-08T08:51:35;1.08;;;0.80;;
51048;SDS011;37084;55.228;36.450;2023-09-08T08:54:38;1.17;;;0.60;;
51048;SDS011;37084;55.228;36.450;2023-09-08T08:57:40;1.17;;;0.70;;
51048;SDS011;37084;55.228;36.450;2023-09-08T09:00:41;1.80;;;1.13;;
51048;SDS011;37084;55.228;36.450;2023-09-08T09:03:49;0.80;;;0.73;;
51048;SDS011;37084;55.228;36.450;2023-09-08T09:06:50;1.20;;;0.80;;
51048;SDS011;37084;55.228;36.450;2023-09-08T09:09:55;2.85;;;0.80;;
51048;SDS011;37084;55.228;36.450;2023-09-08T09:12:56;1.77;;;0.65;;
51048;SDS011;37084;55.228;36.450;2023-09-08T09:15:59;1.23;;;1.10;;
51048;SDS011;37084;55.228;36.450;2023-09-08T09:19:04;2.08;;;0.60;;
51048;SDS011;37084;55.228;36.450;2023-09-08T09:22:08;0.68;;;0.65;;
51048;SDS011;37084;55.228;36.450;2023-09-08T09:25:28;1.77;;;0.70;;
51048;SDS011;37084;55.228;36.450;2023-09-08T09:28:47;0.80;;;0.60;;
51048;SDS011;37084;55.228;36.450;2023-09-08T09:31:55;1.27;;;0.65;;
51048;SDS011;37084;55.228;36.450;2023-09-08T09:34:58;1.40;;;0.50;;
51048;SDS011;37084;55.228;36.450;2023-09-08T09:38:02;1.45;;;0.65;;
51048;SDS011;37084;55.228;36.450;2023-09-08T09:41:04;1.33;;;0.82;;
51048;SDS011;37084;55.228;36.450;2023-09-08T09:44:06;0.73;;;0.73;;
51048;SDS011;37084;55.228;36.450;2023-09-08T09:47:07;2.15;;;0.65;;
51048;SDS011;37084;55.228;36.450;2023-09-08T09:50:10;1.17;;;0.60;;
51048;SDS011;37084;55.228;36.450;2023-09-08T09:53:14;1.83;;;0.95;;
51048;SDS011;37084;55.228;36.450;2023-09-08T09:56:19;0.80;;;0.50;;
51048;SDS011;37084;55.228;36.450;2023-09-08T09:59:21;1.10;;;0.80;;
51048;SDS011;37084;55.228;36.450;2023-09-08T10:02:23;3.60;;;0.80;;
51048;SDS011;37084;55.228;36.450;2023-09-08T10:05:26;1.42;;;0.60;;
51048;SDS011;37084;55.228;36.450;2023-09-08T10:08:28;1.13;;;0.63;;
51048;SDS011;37084;55.228;36.450;2023-09-08T10:11:35;0.70;;;0.63;;
51048;SDS011;37084;55.228;36.450;2023-09-08T10:14:42;2.17;;;0.70;;
51048;SDS011;37084;55.228;36.450;2023-09-08T10:17:44;0.95;;;0.50;;
51048;SDS011;37084;55.228;36.450;2023-09-08T10:20:47;0.50;;;0.50;;
51048;SDS011;37084;55.228;36.450;2023-09-08T10:23:53;0.73;;;0.52;;
51048;SDS011;37084;55.228;36.450;2023-09-08T10:27:00;2.92;;;0.80;;
51048;SDS011;37084;55.228;36.450;2023-09-08T10:30:09;1.30;;;0.50;;
51048;SDS011;37084;55.228;36.450;2023-09-08T10:33:11;2.03;;;0.68;;
51048;SDS011;37084;55.228;36.450;2023-09-08T10:36:13;1.42;;;0.55;;
51048;SDS011;37084;55.228;36.450;2023-09-08T10:39:31;0.82;;;0.43;;
51048;SDS011;37084;55.228;36.450;2023-09-08T10:42:40;2.53;;;0.70;;
51048;SDS011;37084;55.228;36.450;2023-09-08T10:45:41;0.90;;;0.65;;
51048;SDS011;37084;55.228;36.450;2023-09-08T10:48:42;1.38;;;0.70;;
51048;SDS011;37084;55.228;36.450;2023-09-08T10:51:47;1.70;;;0.60;;
51048;SDS011;37084;55.228;36.450;2023-09-08T10:54:52;1.92;;;0.70;;
51048;SDS011;37084;55.228;36.450;2023-09-08T10:57:54;1.17;;;0.70;;
51048;SDS011;37084;55.228;36.450;2023-09-08T11:00:58;1.90;;;0.43;;
51048;SDS011;37084;55.228;36.450;2023-09-08T11:04:03;1.15;;;0.52;;
51048;SDS011;37084;55.228;36.450;2023-09-08T11:07:10;1.20;;;0.63;;
51048;SDS011;37084;55.228;36.450;2023-09-08T11:10:12;3.28;;;0.80;;
51048;SDS011;37084;55.228;36.450;2023-09-08T11:13:13;1.48;;;0.60;;
51048;SDS011;37084;55.228;36.450;2023-09-08T11:16:15;1.75;;;0.63;;
51048;SDS011;37084;55.228;36.450;2023-09-08T11:19:16;1.27;;;0.50;;
51048;SDS011;37084;55.228;36.450;2023-09-08T11:22:18;2.40;;;0.85;;
51048;SDS011;37084;55.228;36.450;2023-09-08T11:25:20;1.20;;;0.80;;
51048;SDS011;37084;55.228;36.450;2023-09-08T11:28:21;2.13;;;0.63;;
51048;SDS011;37084;55.228;36.450;2023-09-08T11:31:23;2.50;;;0.80;;
51048;SDS011;37084;55.228;36.450;2023-09-08T11:34:25;0.77;;;0.60;;
51048;SDS011;37084;55.228;36.450;2023-09-08T11:37:26;1.45;;;0.88;;
51048;SDS011;37084;55.228;36.450;2023-09-08T11:40:28;1.38;;;0.52;;
51048;SDS011;37084;55.228;36.450;2023-09-08T11:43:30;1.13;;;0.52;;
51048;SDS011;37084;55.228;36.450;2023-09-08T11:46:33;1.58;;;0.70;;
51048;SDS011;37084;55.228;36.450;2023-09-08T11:49:39;1.00;;;0.82;;
51048;SDS011;37084;55.228;36.450;2023-09-08T11:52:44;1.40;;;0.65;;
51048;SDS011;37084;55.228;36.450;2023-09-08T11:55:48;0.95;;;0.70;;
51048;SDS011;37084;55.228;36.450;2023-09-08T11:58:50;1.63;;;0.60;;
51048;SDS011;37084;55.228;36.450;2023-09-08T12:01:52;2.22;;;1.00;;
51048;SDS011;37084;55.228;36.450;2023-09-08T12:04:53;1.30;;;0.80;;
51048;SDS011;37084;55.228;36.450;2023-09-08T12:07:55;1.42;;;0.68;;
51048;SDS011;37084;55.228;36.450;2023-09-08T12:10:59;1.38;;;0.52;;
51048;SDS011;37084;55.228;36.450;2023-09-08T12:14:00;3.13;;;1.00;;
51048;SDS011;37084;55.228;36.450;2023-09-08T12:20:31;0.85;;;0.70;;
51048;SDS011;37084;55.228;36.450;2023-09-08T12:23:33;1.30;;;0.73;;
51048;SDS011;37084;55.228;36.450;2023-09-08T12:26:34;2.53;;;0.75;;
51048;SDS011;37084;55.228;36.450;2023-09-08T12:29:37;2.45;;;0.75;;
51048;SDS011;37084;55.228;36.450;2023-09-08T12:32:38;2.63;;;0.65;;
51048;SDS011;37084;55.228;36.450;2023-09-08T12:35:42;1.38;;;0.63;;
51048;SDS011;37084;55.228;36.450;2023-09-08T12:38:51;2.45;;;0.73;;
51048;SDS011;37084;55.228;36.450;2023-09-08T12:41:53;1.77;;;0.85;;
51048;SDS011;37084;55.228;36.450;2023-09-08T12:44:55;4.85;;;0.90;;
51048;SDS011;37084;55.228;36.450;2023-09-08T12:47:58;3.25;;;0.88;;
51048;SDS011;37084;55.228;36.450;2023-09-08T12:51:00;1.63;;;0.80;;
51048;SDS011;37084;55.228;36.450;2023-09-08T12:54:02;2.75;;;0.80;;
51048;SDS011;37084;55.228;36.450;2023-09-08T12:57:03;2.17;;;1.00;;
51048;SDS011;37084;55.228;36.450;2023-09-08T13:00:06;1.80;;;1.35;;
51048;SDS011;37084;55.228;36.450;2023-09-08T13:03:10;2.28;;;0.80;;
51048;SDS011;37084;55.228;36.450;2023-09-08T13:06:11;2.40;;;0.80;;
51048;SDS011;37084;55.228;36.450;2023-09-08T13:09:14;2.90;;;0.73;;
51048;SDS011;37084;55.228;36.450;2023-09-08T13:12:16;1.23;;;0.52;;
51048;SDS011;37084;55.228;36.450;2023-09-08T13:15:18;3.08;;;0.98;;
51048;SDS011;37084;55.228;36.450;2023-09-08T13:18:19;1.15;;;0.80;;
51048;SDS011;37084;55.228;36.450;2023-09-08T13:21:25;1.05;;;0.93;;
51048;SDS011;37084;55.228;36.450;2023-09-08T13:24:26;2.05;;;0.80;;
51048;SDS011;37084;55.228;36.450;2023-09-08T13:27:27;1.55;;;0.82;;
51048;SDS011;37084;55.228;36.450;2023-09-08T13:30:28;1.50;;;0.82;;
51048;SDS011;37084;55.228;36.450;2023-09-08T13:33:32;2.53;;;1.27;;
51048;SDS011;37084;55.228;36.450;2023-09-08T13:36:36;2.28;;;0.82;;
51048;SDS011;37084;55.228;36.450;2023-09-08T13:39:37;1.85;;;0.82;;
51048;SDS011;37084;55.228;36.450;2023-09-08T13:42:39;1.65;;;0.90;;
51048;SDS011;37084;55.228;36.450;2023-09-08T13:45:40;1.20;;;0.85;;
51048;SDS011;37084;55.228;36.450;2023-09-08T13:48:43;1.92;;;0.93;;
51048;SDS011;37084;55.228;36.450;2023-09-08T13:51:44;1.65;;;0.88;;
51048;SDS011;37084;55.228;36.450;2023-09-08T13:54:47;1.13;;;0.85;;
51048;SDS011;37084;55.228;36.450;2023-09-08T13:57:49;3.70;;;1.08;;
51048;SDS011;37084;55.228;36.450;2023-09-08T14:00:54;2.60;;;1.52;;
51048;SDS011;37084;55.228;36.450;2023-09-08T14:03:56;2.38;;;0.98;;
51048;SDS011;37084;55.228;36.450;2023-09-08T14:06:57;2.45;;;1.15;;
51048;SDS011;37084;55.228;36.450;2023-09-08T14:09:59;3.60;;;1.00;;
51048;SDS011;37084;55.228;36.450;2023-09-08T14:13:04;1.52;;;1.10;;
51048;SDS011;37084;55.228;36.450;2023-09-08T14:16:07;2.45;;;1.13;;
51048;SDS011;37084;55.228;36.450;2023-09-08T14:19:12;3.90;;;1.23;;
51048;SDS011;37084;55.228;36.450;2023-09-08T14:22:14;1.90;;;1.40;;
51048;SDS011;37084;55.228;36.450;2023-09-08T14:25:15;3.38;;;1.38;;
51048;SDS011;37084;55.228;36.450;2023-09-08T14:28:16;2.72;;;1.23;;
51048;SDS011;37084;55.228;36.450;2023-09-08T14:31:18;2.35;;;1.13;;
51048;SDS011;37084;55.228;36.450;2023-09-08T14:34:19;3.15;;;1.10;;
51048;SDS011;37084;55.228;36.450;2023-09-08T14:37:20;3.53;;;1.30;;
51048;SDS011;37084;55.228;36.450;2023-09-08T14:40:23;3.65;;;1.33;;
51048;SDS011;37084;55.228;36.450;2023-09-08T14:43:25;2.47;;;1.23;;
51048;SDS011;37084;55.228;36.450;2023-09-08T14:46:26;1.83;;;1.27;;
51048;SDS011;37084;55.228;36.450;2023-09-08T14:49:28;1.23;;;1.05;;
51048;SDS011;37084;55.228;36.450;2023-09-08T14:52:30;2.45;;;1.00;;
51048;SDS011;37084;55.228;36.450;2023-09-08T14:55:31;2.75;;;1.55;;
51048;SDS011;37084;55.228;36.450;2023-09-08T14:58:33;3.17;;;1.48;;
51048;SDS011;37084;55.228;36.450;2023-09-08T15:01:35;3.60;;;1.23;;
51048;SDS011;37084;55.228;36.450;2023-09-08T15:04:39;2.33;;;1.45;;
51048;SDS011;37084;55.228;36.450;2023-09-08T15:07:40;2.53;;;1.40;;
51048;SDS011;37084;55.228;36.450;2023-09-08T15:10:46;2.47;;;1.23;;
51048;SDS011;37084;55.228;36.450;2023-09-08T15:13:48;2.80;;;1.25;;
51048;SDS011;37084;55.228;36.450;2023-09-08T15:16:50;6.00;;;1.55;;
51048;SDS011;37084;55.228;36.450;2023-09-08T15:19:52;3.00;;;1.10;;
51048;SDS011;37084;55.228;36.450;2023-09-08T15:22:53;3.08;;;1.13;;
51048;SDS011;37084;55.228;36.450;2023-09-08T15:25:55;2.17;;;1.13;;
51048;SDS011;37084;55.228;36.450;2023-09-08T15:28:58;4.13;;;2.40;;
51048;SDS011;37084;55.228;36.450;2023-09-08T15:32:01;5.65;;;2.33;;
51048;SDS011;37084;55.228;36.450;2023-09-08T15:35:05;4.57;;;2.45;;
51048;SDS011;37084;55.228;36.450;2023-09-08T15:38:11;3.00;;;2.63;;
51048;SDS011;37084;55.228;36.450;2023-09-08T15:41:14;3.47;;;1.98;;
51048;SDS011;37084;55.228;36.450;2023-09-08T15:44:20;2.97;;;1.92;;
51048;SDS011;37084;55.228;36.450;2023-09-08T15:47:21;2.92;;;1.50;;
51048;SDS011;37084;55.228;36.450;2023-09-08T15:50:24;3.42;;;1.55;;
51048;SDS011;37084;55.228;36.450;2023-09-08T15:53:28;3.50;;;1.50;;
51048;SDS011;37084;55.228;36.450;2023-09-08T15:56:30;2.63;;;1.60;;
51048;SDS011;37084;55.228;36.450;2023-09-08T15:59:31;7.45;;;3.50;;
51048;SDS011;37084;55.228;36.450;2023-09-08T16:02:32;8.48;;;3.47;;
51048;SDS011;37084;55.228;36.450;2023-09-08T16:05:34;22.17;;;11.15;;
51048;SDS011;37084;55.228;36.450;2023-09-08T16:08:36;32.33;;;14.65;;
51048;SDS011;37084;55.228;36.450;2023-09-08T16:11:39;22.15;;;9.63;;
51048;SDS011;37084;55.228;36.450;2023-09-08T16:14:40;10.55;;;5.43;;
51048;SDS011;37084;55.228;36.450;2023-09-08T16:17:41;4.97;;;2.35;;
51048;SDS011;37084;55.228;36.450;2023-09-08T16:20:43;6.93;;;2.95;;
51048;SDS011;37084;55.228;36.450;2023-09-08T16:23:45;6.95;;;3.88;;
51048;SDS011;37084;55.228;36.450;2023-09-08T16:26:47;8.05;;;5.28;;
51048;SDS011;37084;55.228;36.450;2023-09-08T16:29:48;6.88;;;3.83;;
51048;SDS011;37084;55.228;36.450;2023-09-08T16:32:55;4.47;;;2.78;;
51048;SDS011;37084;55.228;36.450;2023-09-08T16:35:56;7.75;;;4.40;;
51048;SDS011;37084;55.228;36.450;2023-09-08T16:38:58;12.82;;;7.25;;
51048;SDS011;37084;55.228;36.450;2023-09-08T16:41:59;5.50;;;3.55;;
51048;SDS011;37084;55.228;36.450;2023-09-08T16:45:00;5.40;;;3.95;;
51048;SDS011;37084;55.228;36.450;2023-09-08T16:48:01;4.50;;;2.15;;
51048;SDS011;37084;55.228;36.450;2023-09-08T16:51:03;5.57;;;3.50;;
51048;SDS011;37084;55.228;36.450;2023-09-08T16:54:06;5.53;;;2.55;;
51048;SDS011;37084;55.228;36.450;2023-09-08T16:57:08;4.13;;;2.85;;
51048;SDS011;37084;55.228;36.450;2023-09-08T17:00:10;6.20;;;3.08;;
51048;SDS011;37084;55.228;36.450;2023-09-08T17:03:16;4.07;;;2.35;;
51048;SDS011;37084;55.228;36.450;2023-09-08T17:06:19;3.95;;;2.42;;
51048;SDS011;37084;55.228;36.450;2023-09-08T17:09:22;3.55;;;2.20;;
51048;SDS011;37084;55.228;36.450;2023-09-08T17:12:25;3.45;;;1.67;;
51048;SDS011;37084;55.228;36.450;2023-09-08T17:15:26;6.20;;;3.42;;
51048;SDS011;37084;55.228;36.450;2023-09-08T17:18:29;4.72;;;1.75;;
51048;SDS011;37084;55.228;36.450;2023-09-08T17:21:30;3.15;;;1.85;;
51048;SDS011;37084;55.228;36.450;2023-09-08T17:24:32;2.58;;;1.92;;
51048;SDS011;37084;55.228;36.450;2023-09-08T17:27:33;4.57;;;2.20;;
51048;SDS011;37084;55.228;36.450;2023-09-08T17:30:35;4.38;;;2.15;;
51048;SDS011;37084;55.228;36.450;2023-09-08T17:33:36;4.18;;;2.47;;
51048;SDS011;37084;55.228;36.450;2023-09-08T17:36:38;5.97;;;2.28;;
51048;SDS011;37084;55.228;36.450;2023-09-08T17:39:40;5.15;;;2.05;;
51048;SDS011;37084;55.228;36.450;2023-09-08T17:42:41;2.65;;;2.05;;
51048;SDS011;37084;55.228;36.450;2023-09-08T17:45:47;3.95;;;2.40;;
51048;SDS011;37084;55.228;36.450;2023-09-08T17:48:49;3.97;;;2.70;;
51048;SDS011;37084;55.228;36.450;2023-09-08T17:51:52;4.22;;;2.53;;
51048;SDS011;37084;55.228;36.450;2023-09-08T17:54:54;5.85;;;3.28;;
51048;SDS011;37084;55.228;36.450;2023-09-08T17:57:58;4.13;;;2.35;;
51048;SDS011;37084;55.228;36.450;2023-09-08T18:00:59;4.75;;;2.92;;
51048;SDS011;37084;55.228;36.450;2023-09-08T18:04:04;5.28;;;3.03;;
51048;SDS011;37084;55.228;36.450;2023-09-08T18:07:07;4.97;;;2.55;;
51048;SDS011;37084;55.228;36.450;2023-09-08T18:10:11;4.55;;;3.08;;